createdAt,value
2022-08-26T00:00:45.287Z,9.757825
2022-08-26T00:01:45.363Z,9.757627
2022-08-26T00:02:45.292Z,9.757674
2022-08-26T00:03:45.305Z,9.757634
2022-08-26T00:04:45.260Z,9.757615
2022-08-26T00:05:45.254Z,9.757425
2022-08-26T00:06:46.277Z,9.757529
2022-08-26T00:07:45.250Z,9.757685
2022-08-26T00:08:45.224Z,9.757607
2022-08-26T00:09:47.412Z,9.757509
2022-08-26T00:10:45.211Z,9.757578
2022-08-26T00:11:45.349Z,9.757465
2022-08-26T00:12:45.226Z,9.757576
2022-08-26T00:13:48.582Z,9.757536
2022-08-26T00:14:45.171Z,9.757520
2022-08-26T00:15:45.175Z,9.757599
2022-08-26T00:16:47.952Z,9.757502
2022-08-26T00:17:45.148Z,9.757488
2022-08-26T00:18:45.136Z,9.757487
2022-08-26T00:19:45.134Z,9.757489
2022-08-26T00:20:45.127Z,9.757553
2022-08-26T00:21:45.147Z,9.757595
2022-08-26T00:22:45.109Z,9.757598
2022-08-26T00:23:45.107Z,9.757596
2022-08-26T00:24:47.922Z,9.757713
2022-08-26T00:25:45.095Z,9.757589
2022-08-26T00:26:45.113Z,9.757679
2022-08-26T00:27:45.082Z,9.757596
2022-08-26T00:28:45.063Z,9.757812
2022-08-26T00:29:45.069Z,9.757572
2022-08-26T00:30:45.041Z,9.757583
2022-08-26T00:31:45.268Z,9.757633
2022-08-26T00:32:46.358Z,9.757550
2022-08-26T00:33:45.021Z,9.757629
2022-08-26T00:34:45.004Z,9.757695
2022-08-26T00:35:45.310Z,9.757530
2022-08-26T00:36:45.021Z,9.757613
2022-08-26T00:37:44.984Z,9.757681
2022-08-26T00:38:44.974Z,9.757693
2022-08-26T00:39:45.666Z,9.757640
2022-08-26T00:40:44.968Z,9.757632
2022-08-26T00:41:44.977Z,9.757598
2022-08-26T00:42:46.044Z,9.757685
2022-08-26T00:43:47.225Z,9.757700
2022-08-26T00:44:44.929Z,9.757655
2022-08-26T00:45:44.989Z,9.757598
2022-08-26T00:46:46.947Z,9.757557
2022-08-26T00:47:44.894Z,9.757559
2022-08-26T00:49:16.803Z,9.757554
2022-08-26T00:49:44.881Z,9.757657
2022-08-26T00:50:44.871Z,9.757763
2022-08-26T00:51:44.913Z,9.757669
2022-08-26T00:52:44.859Z,9.757557
2022-08-26T00:53:44.852Z,9.757598
2022-08-26T00:54:44.851Z,9.757546
2022-08-26T00:55:44.829Z,9.757502
2022-08-26T00:56:44.849Z,9.757530
2022-08-26T00:57:44.805Z,9.757531
2022-08-26T00:58:45.804Z,9.757467
2022-08-26T00:59:44.819Z,9.757519
2022-08-26T01:00:45.260Z,9.757472
2022-08-26T01:01:46.037Z,9.757519
2022-08-26T01:02:46.813Z,9.757569
2022-08-26T01:03:44.762Z,9.757440
2022-08-26T01:04:44.751Z,9.757416
2022-08-26T01:05:44.737Z,9.757406
2022-08-26T01:06:44.763Z,9.757360
2022-08-26T01:07:44.720Z,9.757506
2022-08-26T01:08:44.715Z,9.757515
2022-08-26T01:09:44.705Z,9.757428
2022-08-26T01:10:44.704Z,9.757444
2022-08-26T01:11:44.725Z,9.757558
2022-08-26T01:12:44.678Z,9.757595
2022-08-26T01:13:44.671Z,9.757540
2022-08-26T01:14:46.407Z,9.757581
2022-08-26T01:15:44.660Z,9.757565
2022-08-26T01:16:44.704Z,9.757568
2022-08-26T01:17:44.647Z,9.757541
2022-08-26T01:18:45.626Z,9.757557
2022-08-26T01:19:44.626Z,9.757590
2022-08-26T01:20:44.626Z,9.757607
2022-08-26T01:21:44.655Z,9.757480
2022-08-26T01:22:44.605Z,9.757480
2022-08-26T01:23:45.201Z,9.757465
2022-08-26T01:24:44.606Z,9.757464
2022-08-26T01:25:44.578Z,9.757442
2022-08-26T01:26:44.592Z,9.757495
2022-08-26T01:27:44.804Z,9.757497
2022-08-26T01:28:44.557Z,9.757515
2022-08-26T01:29:45.545Z,9.757513
2022-08-26T01:30:44.535Z,9.757539
2022-08-26T01:31:44.680Z,9.757413
2022-08-26T01:32:44.525Z,9.757414
2022-08-26T01:33:44.510Z,9.757459
2022-08-26T01:34:44.505Z,9.757539
2022-08-26T01:35:44.503Z,9.757549
2022-08-26T01:36:47.939Z,9.757536
2022-08-26T01:37:46.489Z,9.757437
2022-08-26T01:38:44.470Z,9.757512
2022-08-26T01:39:44.460Z,9.757372
2022-08-26T01:40:44.454Z,9.757632
2022-08-26T01:41:44.498Z,9.757514
2022-08-26T01:42:44.436Z,9.757618
2022-08-26T01:43:44.432Z,9.757553
2022-08-26T01:44:44.425Z,9.757444
2022-08-26T01:45:44.451Z,9.757579
2022-08-26T01:46:44.431Z,9.757602
2022-08-26T01:47:44.415Z,9.757582
2022-08-26T01:48:44.386Z,9.757572
2022-08-26T01:49:44.378Z,9.757447
2022-08-26T01:50:44.374Z,9.757434
2022-08-26T01:51:44.392Z,9.757410
2022-08-26T01:52:44.364Z,9.757421
2022-08-26T01:53:46.863Z,9.757463
2022-08-26T01:54:46.342Z,9.757389
2022-08-26T01:55:45.333Z,9.757417
2022-08-26T01:56:44.349Z,9.757386
2022-08-26T01:57:44.305Z,9.757468
2022-08-26T01:58:44.295Z,9.757507
2022-08-26T01:59:44.284Z,9.757442
2022-08-26T02:00:44.302Z,9.757449
2022-08-26T02:01:44.296Z,9.757488
2022-08-26T02:02:44.263Z,9.757483
2022-08-26T02:03:44.252Z,9.757431
2022-08-26T02:04:44.291Z,9.757444
2022-08-26T02:05:44.251Z,9.757464
2022-08-26T02:06:44.256Z,9.757489
2022-08-26T02:07:44.224Z,9.757489
2022-08-26T02:08:44.204Z,9.757446
2022-08-26T02:09:44.204Z,9.757514
2022-08-26T02:10:44.185Z,9.757418
2022-08-26T02:11:44.218Z,9.757411
2022-08-26T02:12:44.179Z,9.757466
2022-08-26T02:13:44.163Z,9.757231
2022-08-26T02:14:44.509Z,9.757332
2022-08-26T02:15:44.167Z,9.757513
2022-08-26T02:16:44.259Z,9.757696
2022-08-26T02:17:44.153Z,9.757866
2022-08-26T02:18:44.122Z,9.757833
2022-08-26T02:19:44.114Z,9.757568
2022-08-26T02:20:44.102Z,9.757655
2022-08-26T02:21:44.129Z,9.757697
2022-08-26T02:22:45.085Z,9.757686
2022-08-26T02:23:44.085Z,9.757778
2022-08-26T02:24:44.067Z,9.757677
2022-08-26T02:25:44.059Z,9.757796
2022-08-26T02:26:44.064Z,9.757614
2022-08-26T02:27:44.068Z,9.757686
2022-08-26T02:28:44.052Z,9.757559
2022-08-26T02:29:44.035Z,9.757623
2022-08-26T02:30:44.026Z,9.757606
2022-08-26T02:31:44.106Z,9.757625
2022-08-26T02:32:44.035Z,9.757442
2022-08-26T02:33:43.994Z,9.757963
2022-08-26T02:34:43.980Z,9.757884
2022-08-26T02:35:43.989Z,9.757840
2022-08-26T02:36:43.969Z,9.757745
2022-08-26T02:37:44.011Z,9.757849
2022-08-26T02:38:43.951Z,9.757677
2022-08-26T02:39:43.943Z,9.757821
2022-08-26T02:40:43.966Z,9.757975
2022-08-26T02:41:45.305Z,9.757823
2022-08-26T02:42:43.950Z,9.757650
2022-08-26T02:43:43.918Z,9.757646
2022-08-26T02:44:43.902Z,9.757837
2022-08-26T02:45:43.972Z,9.758060
2022-08-26T02:46:46.757Z,9.757944
2022-08-26T02:47:43.909Z,9.758112
2022-08-26T02:48:43.875Z,9.757660
2022-08-26T02:49:44.377Z,9.757951
2022-08-26T02:50:43.850Z,9.758329
2022-08-26T02:51:43.852Z,9.758145
2022-08-26T02:52:43.859Z,9.757895
2022-08-26T02:53:43.831Z,9.757627
2022-08-26T02:54:43.817Z,9.757867
2022-08-26T02:55:43.803Z,9.757554
2022-08-26T02:56:43.807Z,9.757554
2022-08-26T02:57:43.819Z,9.757693
2022-08-26T02:58:43.807Z,9.757831
2022-08-26T02:59:43.782Z,9.757689
2022-08-26T03:00:53.113Z,9.757576
2022-08-26T03:01:44.813Z,9.757756
2022-08-26T03:02:43.783Z,9.757658
2022-08-26T03:03:43.744Z,9.757838
2022-08-26T03:04:58.134Z,9.757831
2022-08-26T03:05:44.741Z,9.757668
2022-08-26T03:06:43.727Z,9.757644
2022-08-26T03:07:44.735Z,9.757558
2022-08-26T03:08:43.733Z,9.757542
2022-08-26T03:09:43.688Z,9.757320
2022-08-26T03:10:43.709Z,9.757542
2022-08-26T03:11:43.695Z,9.757472
2022-08-26T03:12:43.703Z,9.757603
2022-08-26T03:13:43.657Z,9.757606
2022-08-26T03:14:43.652Z,9.757567
2022-08-26T03:15:43.689Z,9.757618
2022-08-26T03:16:43.627Z,9.757492
2022-08-26T03:17:43.681Z,9.757390
2022-08-26T03:18:43.619Z,9.757499
2022-08-26T03:19:44.605Z,9.757527
2022-08-26T03:20:43.994Z,9.757715
2022-08-26T03:21:43.589Z,9.757533
2022-08-26T03:22:43.611Z,9.757634
2022-08-26T03:23:43.587Z,9.757396
2022-08-26T03:24:46.189Z,9.757526
2022-08-26T03:25:43.556Z,9.757585
2022-08-26T03:26:52.125Z,9.757421
2022-08-26T03:27:44.566Z,9.757358
2022-08-26T03:28:43.535Z,9.757404
2022-08-26T03:29:43.517Z,9.757404
2022-08-26T03:30:45.464Z,9.757464
2022-08-26T03:31:43.562Z,9.757464
2022-08-26T03:32:43.523Z,9.757406
2022-08-26T03:33:43.496Z,9.757424
2022-08-26T03:34:43.494Z,9.757409
2022-08-26T03:35:43.492Z,9.757485
2022-08-26T03:36:43.463Z,9.757281
2022-08-26T03:37:43.479Z,9.757431
2022-08-26T03:38:43.461Z,9.757417
2022-08-26T03:39:43.437Z,9.757439
2022-08-26T03:40:43.444Z,9.757459
2022-08-26T03:41:43.418Z,9.757328
2022-08-26T03:42:45.331Z,9.757394
2022-08-26T03:43:43.408Z,9.757360
2022-08-26T03:44:43.394Z,9.757389
2022-08-26T03:45:43.383Z,9.757414
2022-08-26T03:46:43.976Z,9.757405
2022-08-26T03:47:43.394Z,9.757389
2022-08-26T03:48:43.359Z,9.757430
2022-08-26T03:49:43.354Z,9.757401
2022-08-26T03:50:43.363Z,9.757632
2022-08-26T03:51:43.346Z,9.757912
2022-08-26T03:52:44.194Z,9.757670
2022-08-26T03:53:44.316Z,9.757495
2022-08-26T03:54:43.550Z,9.757386
2022-08-26T03:55:43.367Z,9.757351
2022-08-26T03:56:43.291Z,9.757439
2022-08-26T03:57:43.318Z,9.757446
2022-08-26T03:58:43.284Z,9.757314
2022-08-26T03:59:43.268Z,9.757470
2022-08-26T04:00:43.262Z,9.757394
2022-08-26T04:01:43.326Z,9.757404
2022-08-26T04:02:43.325Z,9.757414
2022-08-26T04:03:43.265Z,9.757286
2022-08-26T04:04:43.229Z,9.757304
2022-08-26T04:05:43.225Z,9.757285
2022-08-26T04:06:43.219Z,9.757135
2022-08-26T04:07:43.244Z,9.757303
2022-08-26T04:08:43.198Z,9.757479
2022-08-26T04:09:43.197Z,9.757414
2022-08-26T04:10:43.182Z,9.757360
2022-08-26T04:11:43.194Z,9.757449
2022-08-26T04:12:43.204Z,9.757530
2022-08-26T04:13:43.179Z,9.757506
2022-08-26T04:14:43.165Z,9.757477
2022-08-26T04:15:43.182Z,9.757400
2022-08-26T04:16:43.131Z,9.757458
2022-08-26T04:17:43.148Z,9.757483
2022-08-26T04:18:46.771Z,9.757571
2022-08-26T04:19:43.111Z,9.757421
2022-08-26T04:20:43.103Z,9.757321
2022-08-26T04:21:43.102Z,9.757485
2022-08-26T04:22:43.115Z,9.757447
2022-08-26T04:23:47.625Z,9.757405
2022-08-26T04:24:44.085Z,9.757302
2022-08-26T04:25:43.055Z,9.757629
2022-08-26T04:26:43.883Z,9.757586
2022-08-26T04:27:43.042Z,9.757450
2022-08-26T04:28:43.057Z,9.757725
2022-08-26T04:29:43.023Z,9.757640
2022-08-26T04:30:43.009Z,9.757553
2022-08-26T04:31:43.073Z,9.757787
2022-08-26T04:32:43.003Z,9.758143
2022-08-26T04:33:43.028Z,9.757854
2022-08-26T04:34:42.973Z,9.757333
2022-08-26T04:35:43.599Z,9.757395
2022-08-26T04:36:42.958Z,9.757121
2022-08-26T04:37:43.128Z,9.757211
2022-08-26T04:38:42.972Z,9.757275
2022-08-26T04:39:42.935Z,9.756828
2022-08-26T04:40:42.922Z,9.757322
2022-08-26T04:41:42.931Z,9.757419
2022-08-26T04:42:42.908Z,9.757516
2022-08-26T04:43:42.927Z,9.757592
2022-08-26T04:44:42.892Z,9.757457
2022-08-26T04:45:42.993Z,9.757641
2022-08-26T04:46:43.855Z,9.757501
2022-08-26T04:47:42.871Z,9.757487
2022-08-26T04:48:42.882Z,9.757392
2022-08-26T04:49:42.861Z,9.757572
2022-08-26T04:50:43.011Z,9.757480
2022-08-26T04:51:43.910Z,9.757529
2022-08-26T04:52:42.827Z,9.757511
2022-08-26T04:53:42.847Z,9.757473
2022-08-26T04:54:42.828Z,9.757391
2022-08-26T04:55:44.982Z,9.757515
2022-08-26T04:56:43.126Z,9.757453
2022-08-26T04:57:42.869Z,9.757483
2022-08-26T04:58:42.809Z,9.757339
2022-08-26T04:59:42.767Z,9.757377
2022-08-26T05:00:42.760Z,9.757438
2022-08-26T05:01:42.816Z,9.757425
2022-08-26T05:02:42.771Z,9.757467
2022-08-26T05:03:42.761Z,9.757379
2022-08-26T05:04:42.748Z,9.757459
2022-08-26T05:05:42.718Z,9.757498
2022-08-26T05:06:42.741Z,9.757599
2022-08-26T05:07:42.804Z,9.757539
2022-08-26T05:08:42.693Z,9.757517
2022-08-26T05:09:42.685Z,9.757466
2022-08-26T05:10:42.690Z,9.757484
2022-08-26T05:11:42.667Z,9.757523
2022-08-26T05:12:42.685Z,9.757627
2022-08-26T05:13:42.651Z,9.757434
2022-08-26T05:14:42.637Z,9.757591
2022-08-26T05:15:42.733Z,9.757648
2022-08-26T05:16:42.648Z,9.757537
2022-08-26T05:17:42.651Z,9.757629
2022-08-26T05:18:42.620Z,9.757331
2022-08-26T05:19:42.804Z,9.757442
2022-08-26T05:20:42.612Z,9.757305
2022-08-26T05:21:42.593Z,9.757516
2022-08-26T05:22:42.618Z,9.757445
2022-08-26T05:23:42.575Z,9.757438
2022-08-26T05:24:42.559Z,9.757470
2022-08-26T05:25:42.562Z,9.757515
2022-08-26T05:26:44.810Z,9.757467
2022-08-26T05:27:42.566Z,9.757506
2022-08-26T05:28:42.548Z,9.757506
2022-08-26T05:29:42.545Z,9.757526
2022-08-26T05:30:42.537Z,9.757426
2022-08-26T05:31:42.513Z,9.757651
2022-08-26T05:32:42.554Z,9.757143
2022-08-26T05:33:42.473Z,9.757438
2022-08-26T05:34:43.032Z,9.757421
2022-08-26T05:35:42.470Z,9.757176
2022-08-26T05:36:42.461Z,9.757133
2022-08-26T05:37:42.517Z,9.757505
2022-08-26T05:38:42.473Z,9.757634
2022-08-26T05:39:43.579Z,9.757575
2022-08-26T05:40:43.449Z,9.757559
2022-08-26T05:41:42.411Z,9.757606
2022-08-26T05:42:42.497Z,9.757581
2022-08-26T05:43:42.401Z,9.757712
2022-08-26T05:44:54.057Z,9.757705
2022-08-26T05:45:45.952Z,9.757478
2022-08-26T05:46:44.087Z,9.757589
2022-08-26T05:47:42.385Z,9.757579
2022-08-26T05:48:44.286Z,9.757568
2022-08-26T05:49:43.789Z,9.757514
2022-08-26T05:50:43.340Z,9.757589
2022-08-26T05:51:42.321Z,9.757565
2022-08-26T05:52:42.346Z,9.757488
2022-08-26T05:53:43.882Z,9.757452
2022-08-26T05:54:43.317Z,9.757442
2022-08-26T05:55:43.296Z,9.757459
2022-08-26T05:56:42.283Z,9.757713
2022-08-26T05:57:42.859Z,9.757812
2022-08-26T05:58:42.265Z,9.758233
2022-08-26T05:59:42.274Z,9.758233
2022-08-26T06:00:42.251Z,9.757583
2022-08-26T06:01:42.309Z,9.757423
2022-08-26T06:02:42.443Z,9.757577
2022-08-26T06:03:42.223Z,9.758000
2022-08-26T06:04:42.218Z,9.758593
2022-08-26T06:05:42.210Z,9.758021
2022-08-26T06:06:43.268Z,9.757879
2022-08-26T06:07:42.229Z,9.757879
2022-08-26T06:08:42.183Z,9.757879
2022-08-26T06:09:42.197Z,9.758187
2022-08-26T06:10:42.166Z,9.760730
2022-08-26T06:11:42.158Z,9.761391
2022-08-26T06:12:42.180Z,9.761391
2022-08-26T06:13:42.143Z,9.757728
2022-08-26T06:14:42.139Z,9.757498
2022-08-26T06:15:42.219Z,9.757533
2022-08-26T06:16:42.115Z,9.757724
2022-08-26T06:17:42.154Z,9.757533
2022-08-26T06:18:42.107Z,9.757381
2022-08-26T06:19:42.089Z,9.757402
2022-08-26T06:20:42.102Z,9.757377
2022-08-26T06:22:07.320Z,9.757481
2022-08-26T06:22:42.095Z,9.757446
2022-08-26T06:23:42.055Z,9.757456
2022-08-26T06:24:42.111Z,9.757530
2022-08-26T06:25:42.051Z,9.757532
2022-08-26T06:26:42.770Z,9.757481
2022-08-26T06:27:42.041Z,9.757552
2022-08-26T06:28:43.654Z,9.757217
2022-08-26T06:29:42.027Z,9.757320
2022-08-26T06:30:42.027Z,9.757389
2022-08-26T06:31:42.002Z,9.757486
2022-08-26T06:32:42.013Z,9.757380
2022-08-26T06:33:43.234Z,9.757651
2022-08-26T06:34:41.981Z,9.757368
2022-08-26T06:35:41.972Z,9.757492
2022-08-26T06:36:41.963Z,9.757422
2022-08-26T06:37:41.969Z,9.757596
2022-08-26T06:38:41.975Z,9.757310
2022-08-26T06:39:41.940Z,9.757227
2022-08-26T06:40:41.929Z,9.757193
2022-08-26T06:41:43.468Z,9.757336
2022-08-26T06:42:42.913Z,9.757339
2022-08-26T06:43:41.926Z,9.757412
2022-08-26T06:44:44.712Z,9.757634
2022-08-26T06:45:41.888Z,9.757522
2022-08-26T06:46:41.923Z,9.757518
2022-08-26T06:47:41.876Z,9.757515
2022-08-26T06:49:13.796Z,9.757625
2022-08-26T06:49:41.850Z,9.757357
2022-08-26T06:50:41.837Z,9.757209
2022-08-26T06:51:41.847Z,9.757231
2022-08-26T06:52:41.825Z,9.757920
2022-08-26T06:53:41.846Z,9.757800
2022-08-26T06:54:41.805Z,9.757481
2022-08-26T06:55:41.799Z,9.757446
2022-08-26T06:56:41.806Z,9.757447
2022-08-26T06:57:41.781Z,9.757318
2022-08-26T06:58:41.882Z,9.757413
2022-08-26T06:59:41.773Z,9.757419
2022-08-26T07:00:41.761Z,9.757705
2022-08-26T07:01:42.861Z,9.757463
2022-08-26T07:02:41.837Z,9.757465
2022-08-26T07:03:42.767Z,9.757431
2022-08-26T07:04:41.736Z,9.757522
2022-08-26T07:05:41.733Z,9.757555
2022-08-26T07:06:43.118Z,9.757294
2022-08-26T07:07:41.704Z,9.757369
2022-08-26T07:08:41.726Z,9.757407
2022-08-26T07:09:41.679Z,9.757428
2022-08-26T07:10:41.679Z,9.757374
2022-08-26T07:11:41.670Z,9.757509
2022-08-26T07:12:42.664Z,9.757531
2022-08-26T07:13:41.702Z,9.757518
2022-08-26T07:14:41.653Z,9.757432
2022-08-26T07:15:42.676Z,9.757527
2022-08-26T07:16:41.636Z,9.757399
2022-08-26T07:17:41.637Z,9.757524
2022-08-26T07:18:41.649Z,9.757263
2022-08-26T07:19:41.616Z,9.757761
2022-08-26T07:20:42.319Z,9.757422
2022-08-26T07:21:41.667Z,9.757318
2022-08-26T07:22:41.587Z,9.757357
2022-08-26T07:23:41.612Z,9.757503
2022-08-26T07:24:42.483Z,9.757520
2022-08-26T07:25:41.567Z,9.757470
2022-08-26T07:26:43.045Z,9.757227
2022-08-26T07:27:41.554Z,9.757319
2022-08-26T07:28:41.560Z,9.757613
2022-08-26T07:29:42.540Z,9.757426
2022-08-26T07:30:41.544Z,9.757464
2022-08-26T07:31:42.792Z,9.757414
2022-08-26T07:32:41.515Z,9.757365
2022-08-26T07:33:41.538Z,9.757328
2022-08-26T07:34:41.929Z,9.757459
2022-08-26T07:35:41.494Z,9.757635
2022-08-26T07:36:41.483Z,9.757687
2022-08-26T07:37:41.477Z,9.757542
2022-08-26T07:38:41.493Z,9.757182
2022-08-26T07:39:41.459Z,9.757440
2022-08-26T07:40:41.450Z,9.757493
2022-08-26T07:41:41.442Z,9.757668
2022-08-26T07:42:41.441Z,9.757168
2022-08-26T07:43:41.467Z,9.757365
2022-08-26T07:44:41.424Z,9.757534
2022-08-26T07:45:41.422Z,9.756812
2022-08-26T07:46:42.425Z,9.757561
2022-08-26T07:47:41.399Z,9.757719
2022-08-26T07:48:41.387Z,9.757494
2022-08-26T07:49:41.461Z,9.757680
2022-08-26T07:50:50.256Z,9.757561
2022-08-26T07:51:42.368Z,9.757678
2022-08-26T07:52:41.358Z,9.757708
2022-08-26T07:53:41.382Z,9.757708
2022-08-26T07:54:41.340Z,9.757350
2022-08-26T07:55:41.346Z,9.757747
2022-08-26T07:56:41.376Z,9.757667
2022-08-26T07:57:41.346Z,9.757616
2022-08-26T07:58:41.337Z,9.757465
2022-08-26T07:59:41.336Z,9.757533
2022-08-26T08:00:41.399Z,9.757504
2022-08-26T08:01:41.503Z,9.757615
2022-08-26T08:02:41.350Z,9.757536
2022-08-26T08:03:41.355Z,9.757553
2022-08-26T08:04:41.326Z,9.757552
2022-08-26T08:05:41.449Z,9.757502
2022-08-26T08:06:41.300Z,9.757419
2022-08-26T08:07:45.392Z,9.757606
2022-08-26T08:08:41.266Z,9.757593
2022-08-26T08:09:41.306Z,9.757489
2022-08-26T08:10:41.225Z,9.757557
2022-08-26T08:11:41.221Z,9.757580
2022-08-26T08:12:41.345Z,9.757558
2022-08-26T08:13:41.274Z,9.757516
2022-08-26T08:14:41.302Z,9.757481
2022-08-26T08:15:41.199Z,9.757475
2022-08-26T08:16:46.075Z,9.757621
2022-08-26T08:17:43.167Z,9.757494
2022-08-26T08:18:41.203Z,9.757475
2022-08-26T08:19:41.161Z,9.757390
2022-08-26T08:20:44.753Z,9.757476
2022-08-26T08:21:42.138Z,9.757498
2022-08-26T08:22:41.135Z,9.757448
2022-08-26T08:23:41.163Z,9.757539
2022-08-26T08:24:41.144Z,9.757440
2022-08-26T08:25:41.149Z,9.757481
2022-08-26T08:26:41.121Z,9.757666
2022-08-26T08:27:41.102Z,9.758031
2022-08-26T08:28:41.127Z,9.758269
2022-08-26T08:29:41.088Z,9.758271
2022-08-26T08:30:41.135Z,9.758349
2022-08-26T08:31:58.284Z,9.758298
2022-08-26T08:32:43.071Z,9.758351
2022-08-26T08:33:41.098Z,9.758488
2022-08-26T08:35:41.044Z,9.757499
2022-08-26T08:36:41.070Z,9.757535
2022-08-26T08:37:41.034Z,9.757452
2022-08-26T08:38:41.063Z,9.757525
2022-08-26T08:39:41.024Z,9.757558
2022-08-26T08:40:41.013Z,9.757419
2022-08-26T08:41:41.002Z,9.757444
2022-08-26T08:42:41.037Z,9.757415
2022-08-26T08:43:41.014Z,9.757590
2022-08-26T08:44:40.989Z,9.757846
2022-08-26T08:45:41.021Z,9.758111
2022-08-26T08:46:40.959Z,9.758212
2022-08-26T08:47:40.960Z,9.757895
2022-08-26T08:48:40.972Z,9.758051
2022-08-26T08:49:40.944Z,9.757788
2022-08-26T08:50:40.929Z,9.757797
2022-08-26T08:51:40.928Z,9.757606
2022-08-26T08:52:40.928Z,9.757545
2022-08-26T08:53:40.941Z,9.757530
2022-08-26T08:54:40.898Z,9.757484
2022-08-26T08:55:40.895Z,9.757482
2022-08-26T08:56:40.882Z,9.757499
2022-08-26T08:57:40.871Z,9.757386
2022-08-26T08:58:41.899Z,9.757466
2022-08-26T08:59:40.864Z,9.757516
2022-08-26T09:00:40.848Z,9.757499
2022-08-26T09:01:40.869Z,9.757515
2022-08-26T09:02:41.892Z,9.757465
2022-08-26T09:03:40.865Z,9.757397
2022-08-26T09:04:40.826Z,9.757387
2022-08-26T09:05:42.566Z,9.757473
2022-08-26T09:06:41.094Z,9.757629
2022-08-26T09:07:40.807Z,9.757693
2022-08-26T09:08:40.827Z,9.757675
2022-08-26T09:09:40.790Z,9.757656
2022-08-26T09:10:40.786Z,9.757628
2022-08-26T09:11:40.778Z,9.757581
2022-08-26T09:12:40.769Z,9.757660
2022-08-26T09:13:40.800Z,9.757579
2022-08-26T09:14:40.754Z,9.757506
2022-08-26T09:15:40.735Z,9.757367
2022-08-26T09:16:40.766Z,9.757496
2022-08-26T09:17:40.725Z,9.757716
2022-08-26T09:18:41.759Z,9.757818
2022-08-26T09:19:40.718Z,9.757964
2022-08-26T09:20:40.705Z,9.757751
2022-08-26T09:21:40.705Z,9.757654
2022-08-26T09:22:40.691Z,9.757360
2022-08-26T09:23:41.852Z,9.757301
2022-08-26T09:24:48.545Z,9.757404
2022-08-26T09:25:41.731Z,9.757435
2022-08-26T09:26:40.666Z,9.757391
2022-08-26T09:27:40.681Z,9.757421
2022-08-26T09:28:40.650Z,9.757437
2022-08-26T09:29:40.682Z,9.757387
2022-08-26T09:30:40.721Z,9.757417
2022-08-26T09:31:40.638Z,9.757413
2022-08-26T09:32:40.620Z,9.757398
2022-08-26T09:33:40.617Z,9.757401
2022-08-26T09:34:40.633Z,9.757364
2022-08-26T09:35:40.606Z,9.757379
2022-08-26T09:36:41.522Z,9.757380
2022-08-26T09:37:40.612Z,9.757428
2022-08-26T09:38:40.579Z,9.757409
2022-08-26T09:39:40.602Z,9.757428
2022-08-26T09:40:40.561Z,9.757461
2022-08-26T09:41:40.560Z,9.757421
2022-08-26T09:42:40.565Z,9.757446
2022-08-26T09:43:40.557Z,9.757458
2022-08-26T09:44:40.566Z,9.757524
2022-08-26T09:45:40.557Z,9.757480
2022-08-26T09:46:41.522Z,9.757494
2022-08-26T09:47:40.592Z,9.757491
2022-08-26T09:48:41.037Z,9.757405
2022-08-26T09:49:41.472Z,9.757438
2022-08-26T09:50:40.993Z,9.757410
2022-08-26T09:51:40.525Z,9.757296
2022-08-26T09:52:42.787Z,9.757409
2022-08-26T09:53:40.534Z,9.757389
2022-08-26T09:54:40.492Z,9.757423
2022-08-26T09:55:40.454Z,9.757483
2022-08-26T09:56:40.445Z,9.757373
2022-08-26T09:57:40.443Z,9.757443
2022-08-26T09:58:40.435Z,9.757427
2022-08-26T09:59:40.457Z,9.757365
2022-08-26T10:00:40.421Z,9.757429
2022-08-26T10:01:40.469Z,9.757355
2022-08-26T10:02:40.412Z,9.757431
2022-08-26T10:03:41.407Z,9.757468
2022-08-26T10:04:40.505Z,9.757365
2022-08-26T10:05:40.398Z,9.757344
2022-08-26T10:06:40.392Z,9.757561
2022-08-26T10:07:40.387Z,9.757475
2022-08-26T10:08:40.367Z,9.757477
2022-08-26T10:09:40.393Z,9.757450
2022-08-26T10:10:40.356Z,9.757603
2022-08-26T10:11:40.352Z,9.757628
2022-08-26T10:12:40.346Z,9.757491
2022-08-26T10:13:40.334Z,9.757450
2022-08-26T10:15:40.319Z,9.757632
2022-08-26T10:16:41.348Z,9.757602
2022-08-26T10:17:40.313Z,9.757174
2022-08-26T10:18:40.301Z,9.756413
2022-08-26T10:19:55.895Z,9.756868
2022-08-26T10:20:41.292Z,9.756357
2022-08-26T10:21:40.291Z,9.757257
2022-08-26T10:22:40.277Z,9.757314
2022-08-26T10:24:40.295Z,9.757558
2022-08-26T10:25:40.253Z,9.757274
2022-08-26T10:26:40.241Z,9.757541
2022-08-26T10:27:40.579Z,9.757464
2022-08-26T10:28:41.228Z,9.757671
2022-08-26T10:29:40.260Z,9.757723
2022-08-26T10:30:40.235Z,9.757612
2022-08-26T10:31:40.975Z,9.757486
2022-08-26T10:32:41.407Z,9.757588
2022-08-26T10:33:40.239Z,9.757538
2022-08-26T10:34:40.216Z,9.757545
2022-08-26T10:35:40.196Z,9.757480
2022-08-26T10:37:05.065Z,9.757462
2022-08-26T10:37:42.184Z,9.757466
2022-08-26T10:38:40.167Z,9.757520
2022-08-26T10:39:40.195Z,9.757409
2022-08-26T10:40:40.185Z,9.757742
2022-08-26T10:41:40.152Z,9.757635
2022-08-26T10:42:40.148Z,9.757366
2022-08-26T10:43:41.023Z,9.757565
2022-08-26T10:44:40.162Z,9.757701
2022-08-26T10:45:40.157Z,9.757689
2022-08-26T10:46:40.122Z,9.757671
2022-08-26T10:47:40.119Z,9.757986
2022-08-26T10:48:40.111Z,9.757600
2022-08-26T10:49:40.130Z,9.757612
2022-08-26T10:50:40.097Z,9.757603
2022-08-26T10:51:40.094Z,9.757545
2022-08-26T10:52:40.105Z,9.757499
2022-08-26T10:53:40.082Z,9.757475
2022-08-26T10:54:40.103Z,9.757403
2022-08-26T10:55:40.071Z,9.757414
2022-08-26T10:56:40.060Z,9.757357
2022-08-26T10:57:40.052Z,9.757453
2022-08-26T10:58:40.090Z,9.757542
2022-08-26T10:59:40.074Z,9.757465
2022-08-26T11:00:40.100Z,9.757438
2022-08-26T11:01:40.777Z,9.757437
2022-08-26T11:02:39.999Z,9.757410
2022-08-26T11:03:42.006Z,9.757321
2022-08-26T11:04:43.266Z,9.757308
2022-08-26T11:05:40.999Z,9.757461
2022-08-26T11:06:39.990Z,9.757403
2022-08-26T11:07:40.003Z,9.757460
2022-08-26T11:08:39.965Z,9.757481
2022-08-26T11:09:40.996Z,9.757551
2022-08-26T11:10:39.965Z,9.757660
2022-08-26T11:11:40.962Z,9.757666
2022-08-26T11:12:39.949Z,9.757575
2022-08-26T11:13:41.614Z,9.757307
2022-08-26T11:14:53.961Z,9.757338
2022-08-26T11:15:41.930Z,9.757534
2022-08-26T11:16:42.905Z,9.757617
2022-08-26T11:17:39.917Z,9.757755
2022-08-26T11:18:39.914Z,9.757774
2022-08-26T11:19:59.491Z,9.757705
2022-08-26T11:20:42.388Z,9.757436
2022-08-26T11:21:39.884Z,9.757452
2022-08-26T11:22:47.403Z,9.757574
2022-08-26T11:23:41.604Z,9.757583
2022-08-26T11:24:39.888Z,9.757456
2022-08-26T11:25:39.848Z,9.757531
2022-08-26T11:26:56.246Z,9.757533
2022-08-26T11:27:40.843Z,9.757507
2022-08-26T11:28:39.829Z,9.757706
2022-08-26T11:29:39.845Z,9.757709
2022-08-26T11:30:40.042Z,9.757544
2022-08-26T11:31:39.836Z,9.757585
2022-08-26T11:32:39.793Z,9.757590
2022-08-26T11:33:39.788Z,9.757690
2022-08-26T11:34:39.805Z,9.757683
2022-08-26T11:35:39.778Z,9.757543
2022-08-26T11:36:39.777Z,9.757603
2022-08-26T11:37:40.600Z,9.757628
2022-08-26T11:38:39.751Z,9.757485
2022-08-26T11:39:43.271Z,9.757487
2022-08-26T11:40:40.777Z,9.757421
2022-08-26T11:41:39.742Z,9.757466
2022-08-26T11:42:39.722Z,9.757791
2022-08-26T11:43:39.715Z,9.757809
2022-08-26T11:44:39.732Z,9.757860
2022-08-26T11:45:39.709Z,9.757658
2022-08-26T11:46:39.686Z,9.757565
2022-08-26T11:47:39.687Z,9.757668